Time;durP1;ratioP1;P1;durP2;ratioP2;P2;SDS_P1;SDS_P2;PMS_P1;PMS_P2;Temp;Humidity;BMP_temperature;BMP_pressure;BME280_temperature;BME280_humidity;BME280_pressure;Samples;Min_cycle;Max_cycle;Signal;HPM_P1;HPM_P2
2022/04/27 00:00:29;;;;;;;12.18;8.82;;;;;;;;;;5032665;28;20040;-48
2022/04/27 00:02:56;;;;;;;12.05;8.90;;;;;;;;;;5015075;28;20033;-48
2022/04/27 00:05:22;;;;;;;12.15;9.20;;;;;;;22.55;69.29;58178.75;5032906;28;20060;-47
2022/04/27 00:07:47;;;;;;;15.82;10.30;;;;;;;22.55;74.00;58178.75;5032687;28;20069;-47
2022/04/27 00:10:12;;;;;;;15.23;9.27;;;;;;;;;;5031930;28;20040;-49
2022/04/27 00:12:38;;;;;;;10.73;9.20;;;;;;;;;;5032534;28;20107;-51
2022/04/27 00:15:04;;;;;;;12.10;9.18;;;;;;;;;;5032259;28;20514;-51
2022/04/27 00:17:29;;;;;;;11.52;8.73;;;;;;;;;;5032374;28;20095;-48
2022/04/27 00:19:54;;;;;;;12.23;9.05;;;;;;;;;;5031149;28;20042;-49
2022/04/27 00:22:19;;;;;;;11.10;8.70;;;;;;;;;;5032362;28;20116;-47
2022/04/27 00:24:45;;;;;;;12.90;9.03;;;;;;;4.57;nan;102320.16;5032147;28;20284;-51
2022/04/27 00:27:10;;;;;;;17.95;8.82;;;;;;;4.74;nan;102347.38;5032287;28;20650;-48
2022/04/27 00:29:35;;;;;;;10.63;8.23;;;;;;;4.68;nan;102345.56;5031917;28;20037;-50
2022/04/27 00:32:01;;;;;;;10.23;7.80;;;;;;;4.65;nan;102340.28;5032214;28;20029;-51
2022/04/27 00:34:26;;;;;;;15.55;8.52;;;;;;;4.64;nan;102343.75;5032127;28;20042;-49
2022/04/27 00:36:52;;;;;;;11.65;8.30;;;;;;;4.67;nan;102345.53;5031555;28;20436;-52
2022/04/27 00:39:17;;;;;;;12.90;9.35;;;;;;;4.27;nan;102279.72;5032113;28;20160;-55
2022/04/27 00:41:58;;;;;;;10.68;9.32;;;;;;;4.67;nan;102358.59;5031957;28;20040;-49
2022/04/27 00:44:31;;;;;;;12.35;8.90;;;;;;;4.60;nan;102351.50;5030777;28;20034;-53
2022/04/27 00:46:56;;;;;;;11.70;9.32;;;;;;;4.58;nan;102364.53;5014225;28;20039;-49
2022/04/27 00:49:22;;;;;;;14.50;9.48;;;;;;;4.59;nan;102373.22;4997784;28;20025;-53
2022/04/27 00:51:48;;;;;;;14.30;9.70;;;;;;;4.55;nan;102339.25;5032001;28;20449;-53
2022/04/27 00:54:14;;;;;;;13.43;10.38;;;;;;;4.39;nan;102310.31;5014040;28;20397;-48
2022/04/27 00:56:40;;;;;;;13.13;9.32;;;;;;;4.71;nan;102355.16;5013884;28;20116;-52
2022/04/27 00:59:05;;;;;;;14.77;10.45;;;;;;;4.73;nan;102346.50;5031666;28;20104;-48
2022/04/27 01:01:32;;;;;;;11.70;9.20;;;;;;;4.77;nan;102352.66;5014259;28;20380;-51
2022/04/27 01:03:58;;;;;;;14.43;9.75;;;;;;;4.51;nan;102305.31;5031826;28;20041;-50
2022/04/27 01:06:23;;;;;;;11.23;10.02;;;;;;;4.79;nan;102353.53;5031498;28;20079;-52
2022/04/27 01:08:48;;;;;;;15.50;10.55;;;;;;;4.81;nan;102352.72;5031863;28;20120;-52
2022/04/27 01:11:15;;;;;;;15.63;11.27;;;;;;;4.84;nan;102351.91;5031410;28;20036;-49
2022/04/27 01:13:40;;;;;;;13.05;11.23;;;;;;;4.91;nan;102351.09;5013981;28;20095;-51
2022/04/27 01:16:06;;;;;;;16.88;11.90;;;;;;;4.99;nan;102352.97;5031802;28;20540;-50
2022/04/27 01:18:31;;;;;;;13.88;11.93;;;;;;;5.02;nan;102346.94;5032393;28;20033;-49
2022/04/27 01:20:57;;;;;;;13.10;11.23;;;;;;;5.05;nan;102355.69;5032159;28;20042;-50
2022/04/27 01:23:22;;;;;;;15.15;11.63;;;;;;;5.09;nan;102357.47;5031924;28;20033;-48
2022/04/27 01:25:50;;;;;;;18.00;12.20;;;;;;;5.10;nan;102347.94;5032020;28;20033;-47
2022/04/27 01:28:23;;;;;;;15.10;12.73;;;;;;;5.22;nan;102352.44;5014865;28;20121;-49
2022/04/27 01:30:58;;;;;;;16.85;12.48;;;;;;;5.29;nan;102347.31;5014516;28;20061;-48
2022/04/27 01:33:24;;;;;;;17.42;12.55;;;;;;;5.30;nan;102337.75;5032257;28;20095;-48
2022/04/27 01:35:49;;;;;;;16.45;11.27;;;;;;;5.21;nan;102308.91;5014393;28;20077;-49
2022/04/27 01:38:16;;;;;;;14.15;11.60;;;;;;;5.54;nan;102366.78;5030836;28;20459;-49
2022/04/27 01:40:42;;;;;;;14.82;11.30;;;;;;;5.61;nan;102356.41;5031970;28;20033;-49
2022/04/27 01:43:07;;;;;;;16.95;11.57;;;;;;;5.70;nan;102363.50;5032144;28;20091;-52
2022/04/27 01:45:32;;;;;;;15.07;10.98;;;;;;;5.50;nan;102310.13;5032064;28;20057;-50
2022/04/27 01:47:58;;;;;;;13.65;10.82;;;;;;;5.81;nan;102361.03;5031374;28;20040;-49
2022/04/27 01:50:23;;;;;;;13.45;10.23;;;;;;;5.54;nan;102296.28;5032107;28;20042;-46
2022/04/27 01:55:32;;;;;;;13.75;10.20;;;;;;;5.91;nan;102358.53;5031877;28;20049;-50
2022/04/27 01:57:58;;;;;;;14.88;10.90;;;;;;;5.68;nan;102313.84;5030814;28;20038;-49
2022/04/27 02:00:24;;;;;;;17.38;12.27;;;;;;;5.75;nan;102319.16;5031946;28;20037;-48
2022/04/27 02:02:49;;;;;;;14.50;11.40;;;;;;;6.05;nan;102366.53;5031838;28;20396;-49
2022/04/27 02:05:14;;;;;;;15.63;11.25;;;;;;;6.05;nan;102366.53;5031735;28;20044;-48
2022/04/27 02:07:40;;;;;;;14.70;10.65;;;;;;;6.06;nan;102371.78;5031796;28;20468;-53
2022/04/27 02:10:06;;;;;;;11.90;9.80;;;;;;;6.04;nan;102372.63;5031840;28;20037;-49
2022/04/27 02:12:32;;;;;;;13.18;11.02;;;;;;;6.06;nan;102374.41;5031819;28;20033;-50
2022/04/27 02:14:57;;;;;;;15.68;11.40;;;;;;;6.09;nan;102390.13;5031757;28;20041;-50
2022/04/27 02:17:23;;;;;;;16.30;11.15;;;;;;;6.01;nan;102365.59;5031752;28;20033;-54
2022/04/27 02:19:48;;;;;;;14.43;9.90;;;;;;;5.78;nan;102327.88;5014144;28;20407;-49
2022/04/27 02:22:13;;;;;;;12.75;10.20;;;;;;;5.77;nan;102331.34;5030356;28;20048;-50
2022/04/27 02:24:38;;;;;;;15.27;12.02;;;;;;;6.06;nan;102384.84;5031812;28;20049;-49
2022/04/27 02:27:04;;;;;;;13.98;11.10;;;;;;;6.10;nan;102397.06;5031801;28;20046;-51
2022/04/27 02:29:29;;;;;;;19.95;11.48;;;;;;;6.15;nan;102389.28;5032054;28;20038;-48
2022/04/27 02:31:54;;;;;;;17.20;12.10;;;;;;;5.90;nan;102346.31;5031792;28;20039;-49
2022/04/27 02:34:20;;;;;;;15.45;12.07;;;;;;;5.88;nan;102324.53;5033424;28;20132;-49
2022/04/27 02:36:45;;;;;;;15.35;13.25;;;;;;;6.00;nan;102339.47;5034797;28;20081;-50
2022/04/27 02:39:10;;;;;;;17.60;13.18;;;;;;;6.28;nan;102388.53;5034225;28;20041;-52
2022/04/27 02:41:35;;;;;;;22.23;12.63;;;;;;;6.28;nan;102396.38;5035092;28;20087;-48
2022/04/27 02:44:01;;;;;;;19.83;13.45;;;;;;;6.26;nan;102386.78;5035144;28;20128;-50
2022/04/27 02:46:26;;;;;;;16.48;14.38;;;;;;;6.00;nan;102337.72;5035008;28;20033;-54
2022/04/27 02:51:54;;;;;;;17.60;11.85;;;;;;;6.26;nan;102374.59;5034935;28;20172;-51
2022/04/27 02:54:21;;;;;;;20.40;12.80;;;;;;;6.26;nan;102381.53;5034685;28;20033;-50
2022/04/27 02:56:48;;;;;;;17.10;12.63;;;;;;;6.02;nan;102333.38;5016839;28;20033;-53
2022/04/27 02:59:14;;;;;;;16.17;11.50;;;;;;;6.04;nan;102341.25;5033475;28;20034;-51
2022/04/27 03:01:39;;;;;;;17.20;12.15;;;;;;;6.30;nan;102396.41;5033395;28;20080;-54
2022/04/27 03:04:05;;;;;;;13.50;10.55;;;;;;;6.33;nan;102383.38;5033285;28;20035;-53
2022/04/27 03:06:31;;;;;;;15.63;11.45;;;;;;;6.40;nan;102390.41;5034508;28;20088;-53
2022/04/27 03:08:56;;;;;;;14.95;10.60;;;;;;;6.34;nan;102382.50;5034645;28;20041;-47
2022/04/27 03:11:21;;;;;;;13.05;10.90;;;;;;;6.37;nan;102388.63;5034840;28;20378;-48
2022/04/27 03:13:47;;;;;;;16.75;10.13;;;;;;;6.42;nan;102392.16;5034596;28;20042;-51
2022/04/27 03:16:12;;;;;;;12.38;9.90;;;;;;;6.47;nan;102392.22;5034405;28;20036;-48
2022/04/27 03:18:38;;;;;;;12.73;9.77;;;;;;;6.40;nan;102390.41;5034301;28;20052;-51
2022/04/27 03:21:03;;;;;;;16.38;10.32;;;;;;;6.26;nan;102356.28;5034195;28;20109;-50
2022/04/27 03:23:28;;;;;;;15.85;10.77;;;;;;;6.33;nan;102367.69;5034264;28;20042;-51
2022/04/27 03:25:54;;;;;;;14.13;9.90;;;;;;;6.33;nan;102384.25;5034191;28;20034;-47
2022/04/27 03:28:19;;;;;;;11.55;9.95;;;;;;;6.25;nan;102383.28;5016385;28;20476;-48
2022/04/27 03:30:45;;;;;;;15.80;9.70;;;;;;;6.25;nan;102398.13;5034153;28;20041;-50
2022/04/27 03:33:10;;;;;;;11.85;9.27;;;;;;;5.94;nan;102331.56;5034032;28;20043;-55
2022/04/27 03:35:36;;;;;;;13.82;9.38;;;;;;;6.16;nan;102391.91;5034158;28;20033;-54
2022/04/27 03:38:03;;;;;;;13.52;10.05;;;;;;;6.05;nan;102380.47;5033929;28;20056;-53
2022/04/27 03:40:29;;;;;;;13.15;9.95;;;;;;;5.69;nan;102299.06;5016262;28;20383;-51
2022/04/27 03:42:54;;;;;;;14.52;9.82;;;;;;;5.89;nan;102333.25;5032777;28;20112;-50
2022/04/27 03:45:20;;;;;;;14.20;10.15;;;;;;;6.23;nan;102383.28;5032530;28;20033;-51
2022/04/27 03:47:47;;;;;;;13.18;10.48;;;;;;;6.22;nan;102386.75;5034052;28;20035;-52
2022/04/27 03:50:12;;;;;;;14.40;9.98;;;;;;;5.95;nan;102318.53;5034080;28;20041;-50
2022/04/27 03:52:37;;;;;;;14.10;10.73;;;;;;;6.04;nan;102329.03;5033904;28;20500;-48
2022/04/27 03:55:03;;;;;;;12.10;10.60;;;;;;;6.06;nan;102326.47;5033781;28;20042;-49
2022/04/27 03:57:28;;;;;;;12.23;9.73;;;;;;;6.40;nan;102390.41;5033702;28;20060;-47
2022/04/27 03:59:54;;;;;;;15.65;10.27;;;;;;;6.42;nan;102399.16;5033576;28;20049;-51
2022/04/27 04:02:20;;;;;;;17.63;10.02;;;;;;;6.38;nan;102386.91;5033549;28;20045;-49
2022/04/27 04:04:45;;;;;;;12.50;10.57;;;;;;;6.14;nan;102346.59;5033637;28;20032;-49
2022/04/27 04:07:12;;;;;;;14.35;9.35;;;;;;;5.91;nan;102300.16;5033702;28;20128;-50
2022/04/27 04:09:41;;;;;;;16.63;10.27;;;;;;;6.49;nan;102393.09;5033503;28;20038;-49
2022/04/27 04:12:07;;;;;;;11.65;9.30;;;;;;;6.46;nan;102393.06;5032211;28;20037;-54
2022/04/27 04:14:32;;;;;;;14.23;10.65;;;;;;;6.32;nan;102358.97;5031973;28;20180;-49
2022/04/27 04:16:58;;;;;;;13.00;10.00;;;;;;;6.58;nan;102406.25;5015686;28;20123;-50
2022/04/27 04:19:23;;;;;;;11.88;9.90;;;;;;;6.30;nan;102351.97;5033492;28;20052;-50
2022/04/27 04:21:48;;;;;;;14.15;9.95;;;;;;;6.65;nan;102406.34;5033009;28;20050;-49
2022/04/27 04:24:14;;;;;;;14.07;9.82;;;;;;;6.36;nan;102352.03;5033142;28;20038;-48
2022/04/27 04:29:23;;;;;;;11.95;9.63;;;;;;;6.40;nan;102356.41;5033298;28;20133;-51
2022/04/27 04:31:49;;;;;;;12.20;9.40;;;;;;;6.40;nan;102349.44;5033105;28;20539;-51
2022/04/27 04:34:14;;;;;;;17.77;10.07;;;;;;;6.81;nan;102417.81;5033043;28;20546;-51
2022/04/27 04:36:39;;;;;;;11.95;9.57;;;;;;;6.85;nan;102411.75;5032630;28;20030;-54
2022/04/27 04:39:05;;;;;;;15.07;9.57;;;;;;;6.90;nan;102425.72;5015166;28;20038;-49
2022/04/27 04:41:30;;;;;;;13.43;9.38;;;;;;;6.96;nan;102425.78;5032928;28;20056;-49
2022/04/27 04:43:55;;;;;;;10.52;7.97;;;;;;;6.99;nan;102424.91;5032604;28;20069;-53
2022/04/27 04:46:20;;;;;;;13.80;8.23;;;;;;;6.71;nan;102377.59;5032573;28;20046;-49
2022/04/27 04:48:46;;;;;;;10.75;8.60;;;;;;;7.08;nan;102430.22;5032716;28;20029;-48
2022/04/27 04:51:11;;;;;;;12.48;7.57;;;;;;;6.84;nan;102391.66;5032791;28;20037;-48
2022/04/27 04:53:36;;;;;;;11.07;7.75;;;;;;;7.11;nan;102436.38;5032796;28;20037;-53
2022/04/27 04:56:02;;;;;;;10.55;7.32;;;;;;;6.75;nan;102373.25;5032128;28;20404;-53
2022/04/27 04:58:27;;;;;;;10.90;6.82;;;;;;;7.22;nan;102453.03;5031104;28;20042;-49
2022/04/27 05:00:53;;;;;;;9.02;6.88;;;;;;;6.93;nan;102399.56;5032612;28;20045;-50
2022/04/27 05:03:18;;;;;;;9.85;6.68;;;;;;;7.30;nan;102451.31;5032381;28;20038;-50
2022/04/27 05:05:44;;;;;;;7.78;6.13;;;;;;;6.41;nan;102317.19;5032809;28;20037;-53
2022/04/27 05:08:10;;;;;;;8.32;6.13;;;;;;;7.08;nan;102410.16;5032202;28;20037;-50
2022/04/27 05:10:35;;;;;;;9.85;6.07;;;;;;;7.43;nan;102472.38;5031245;28;20026;-50
2022/04/27 05:13:01;;;;;;;7.35;5.40;;;;;;;7.43;nan;102470.63;5030938;28;20034;-53
2022/04/27 05:15:26;;;;;;;7.43;5.15;;;;;;;7.29;nan;102446.09;5032374;28;20053;-50
2022/04/27 05:17:51;;;;;;;7.47;5.55;;;;;;;7.53;nan;102485.53;5032357;28;20052;-53
2022/04/27 05:20:17;;;;;;;5.97;5.20;;;;;;;7.55;nan;102489.06;5031185;28;20039;-49
2022/04/27 05:22:42;;;;;;;10.18;5.75;;;;;;;7.63;nan;102494.31;5032145;28;20044;-54
2022/04/27 05:25:09;;;;;;;10.48;5.55;;;;;;;7.71;nan;102497.88;5032241;28;20374;-52
2022/04/27 05:27:35;;;;;;;5.88;5.18;;;;;;;7.62;nan;102482.09;5014661;28;20038;-50
2022/04/27 05:32:45;;;;;;;8.23;5.10;;;;;;;7.85;nan;102511.94;5032050;28;20124;-51
2022/04/27 05:35:12;;;;;;;7.90;5.10;;;;;;;6.89;nan;102332.34;5032093;28;20124;-48
2022/04/27 05:37:38;;;;;;;10.00;4.88;;;;;;;7.96;nan;102514.63;5032251;28;20042;-48
2022/04/27 05:40:04;;;;;;;7.22;5.22;;;;;;;8.03;nan;102526.88;5032142;28;20037;-49
2022/04/27 05:42:30;;;;;;;8.77;5.53;;;;;;;8.08;nan;102512.94;5032287;28;20436;-52
2022/04/27 05:44:55;;;;;;;10.32;7.20;;;;;;;7.78;nan;102458.59;5030916;28;20117;-51
2022/04/27 05:47:23;;;;;;;10.27;6.82;;;;;;;7.76;nan;102451.59;5032009;28;20076;-50
2022/04/27 05:49:51;;;;;;;8.00;6.82;;;;;;;8.14;nan;102520.84;5032009;28;20026;-49
2022/04/27 05:52:18;;;;;;;9.40;6.82;;;;;;;7.84;nan;102461.25;5014437;28;20558;-52
2022/04/27 05:54:43;;;;;;;9.30;6.97;;;;;;;8.22;nan;102521.72;5031621;28;20121;-53
2022/04/27 05:57:09;;;;;;;7.20;6.38;;;;;;;8.23;nan;102514.75;5032402;28;20120;-50
2022/04/27 05:59:34;;;;;;;9.43;6.43;;;;;;;8.10;nan;102490.19;5014409;28;20124;-50
2022/04/27 06:01:59;;;;;;;8.27;6.95;;;;;;;8.33;nan;102535.78;5031634;28;20034;-51
2022/04/27 06:04:26;;;;;;;8.15;6.18;;;;;;;8.25;nan;102507.75;5014103;28;20041;-49
2022/04/27 06:06:53;;;;;;;8.65;6.10;;;;;;;8.45;nan;102533.22;5032165;28;20503;-53
2022/04/27 06:09:18;;;;;;;8.15;5.60;;;;;;;8.48;nan;102522.72;5016105;28;20389;-54
2022/04/27 06:11:44;;;;;;;7.32;6.15;;;;;;;8.52;nan;102544.63;5035764;28;20065;-51
2022/04/27 06:14:10;;;;;;;8.70;5.93;;;;;;;8.59;nan;102538.50;5033419;28;20471;-55
2022/04/27 06:16:36;;;;;;;6.32;5.60;;;;;;;8.30;nan;102485.06;5036298;28;20033;-50
2022/04/27 06:19:02;;;;;;;6.95;5.15;;;;;;;8.68;nan;102545.50;5035519;28;20476;-54
2022/04/27 06:21:31;;;;;;;6.50;4.47;;;;;;;8.68;nan;102566.53;5035487;28;20423;-58
2022/04/27 06:23:59;;;;;;;7.22;4.43;;;;;;;8.30;nan;102493.81;5035036;28;20516;-52
2022/04/27 06:26:26;;;;;;;9.50;4.95;;;;;;;8.69;nan;102556.03;5035212;28;20047;-55
2022/04/27 06:28:52;;;;;;;5.63;4.25;;;;;;;8.78;nan;102560.44;5035223;28;20503;-54
2022/04/27 06:31:21;;;;;;;6.80;4.47;;;;;;;8.83;nan;102559.56;5035193;28;20029;-50
2022/04/27 06:33:47;;;;;;;9.35;4.78;;;;;;;8.86;nan;102564.81;5033930;28;20048;-54
2022/04/27 06:36:13;;;;;;;5.50;4.20;;;;;;;8.89;nan;102567.47;5034889;28;20060;-55
2022/04/27 06:38:38;;;;;;;5.60;4.47;;;;;;;8.64;nan;102504.41;5013530;28;20081;-51
2022/04/27 06:41:05;;;;;;;4.38;3.97;;;;;;;9.07;nan;102564.00;5015108;28;20038;-47
2022/04/27 06:43:31;;;;;;;10.02;4.30;;;;;;;9.12;nan;102588.50;5015221;28;20121;-51
2022/04/27 06:45:58;;;;;;;6.47;4.20;;;;;;;9.09;nan;102569.22;5014814;28;20120;-53
2022/04/27 06:48:23;;;;;;;6.93;4.13;;;;;;;8.81;nan;102526.31;5030133;28;20037;-52
2022/04/27 06:50:49;;;;;;;4.50;3.67;;;;;;;8.69;nan;102521.03;5014679;28;20034;-49
2022/04/27 06:53:14;;;;;;;4.60;4.03;;;;;;;9.34;nan;102574.50;5015226;28;20092;-50
2022/04/27 06:55:39;;;;;;;5.53;3.90;;;;;;;8.86;nan;102512.31;5029888;28;20041;-51
2022/04/27 06:58:05;;;;;;;7.93;4.68;;;;;;;9.30;nan;102588.53;5015244;28;20030;-53
2022/04/27 07:00:30;;;;;;;5.93;4.00;;;;;;;9.29;nan;102594.66;5030025;28;20038;-50
2022/04/27 07:02:56;;;;;;;7.10;4.35;;;;;;;9.35;nan;102586.78;5013320;28;20500;-52
2022/04/27 07:05:26;;;;;;;6.60;4.32;;;;;;;9.49;nan;102607.78;5013158;28;20041;-55
2022/04/27 07:07:51;;;;;;;8.35;3.75;;;;;;;9.16;nan;102547.34;5012639;28;20515;-53
2022/04/27 07:10:19;;;;;;;8.68;4.25;;;;;;;9.55;nan;102608.66;5014066;28;20058;-54
2022/04/27 07:12:46;;;;;;;5.70;4.40;;;;;;;9.26;nan;102551.72;5014645;28;20053;-56
2022/04/27 07:15:12;;;;;;;6.78;4.93;;;;;;;9.71;nan;102608.66;5014520;28;20038;-52
2022/04/27 07:17:37;;;;;;;6.35;5.18;;;;;;;9.78;nan;102611.28;5029511;28;20034;-56
2022/04/27 07:20:04;;;;;;;6.35;4.25;;;;;;;9.50;nan;102549.97;5013539;28;20030;-53
2022/04/27 07:22:29;;;;;;;6.25;4.15;;;;;;;9.53;nan;102547.34;5014234;28;20073;-52
2022/04/27 07:24:54;;;;;;;6.10;4.28;;;;;;;9.81;nan;102594.63;5014509;28;20058;-53
2022/04/27 07:27:20;;;;;;;5.63;4.00;;;;;;;9.66;nan;102565.75;5014553;28;20157;-49
2022/04/27 07:29:45;;;;;;;7.47;4.47;;;;;;;10.00;nan;102638.44;5012825;28;20477;-49
2022/04/27 07:32:10;;;;;;;7.20;4.18;;;;;;;10.02;nan;102629.66;5014252;28;20077;-54
2022/04/27 07:34:36;;;;;;;6.50;4.05;;;;;;;10.07;nan;102638.41;5012875;28;20116;-54
2022/04/27 07:37:03;;;;;;;8.15;4.38;;;;;;;9.79;nan;102596.38;5012973;28;20537;-51
2022/04/27 07:39:29;;;;;;;4.68;3.55;;;;;;;9.63;nan;102588.50;5014427;28;20030;-50
2022/04/27 07:41:54;;;;;;;6.88;4.10;;;;;;;9.97;nan;102646.34;5012844;28;20037;-53
2022/04/27 07:44:19;;;;;;;6.38;3.65;;;;;;;10.18;nan;102648.09;5012916;28;20099;-51
2022/04/27 07:46:47;;;;;;;12.93;4.05;;;;;;;9.87;nan;102600.75;5013864;28;20038;-55
2022/04/27 07:49:14;;;;;;;5.82;3.72;;;;;;;10.23;nan;102652.47;5013902;28;20485;-52
2022/04/27 07:51:39;;;;;;;6.22;4.18;;;;;;;10.28;nan;102653.31;5012832;28;20492;-55
2022/04/27 07:54:05;;;;;;;7.18;3.58;;;;;;;10.38;nan;102660.34;5013975;28;20034;-57
2022/04/27 07:56:30;;;;;;;5.38;3.35;;;;;;;10.54;nan;102663.78;5029063;28;20045;-50
2022/04/27 07:58:55;;;;;;;6.43;4.07;;;;;;;10.24;nan;102604.22;5013865;28;20064;-52
2022/04/27 08:01:21;;;;;;;5.60;4.45;;;;;;;10.71;nan;102659.34;5013937;28;20045;-48
2022/04/27 08:03:46;;;;;;;7.22;4.68;;;;;;;10.85;nan;102664.56;5012309;28;20038;-51
2022/04/27 08:06:11;;;;;;;3.75;3.38;;;;;;;10.72;nan;102667.22;5013765;28;20042;-52
2022/04/27 08:08:37;;;;;;;6.93;4.20;;;;;;;10.77;nan;102674.25;5013976;28;20044;-54
2022/04/27 08:11:02;;;;;;;7.40;4.38;;;;;;;10.85;nan;102668.06;5012346;28;20065;-52
2022/04/27 08:13:28;;;;;;;6.55;4.45;;;;;;;10.93;nan;102682.06;5013603;28;20045;-53
2022/04/27 08:15:53;;;;;;;4.53;3.20;;;;;;;10.66;nan;102626.88;5012113;28;20034;-52
2022/04/27 08:18:20;;;;;;;5.43;3.63;;;;;;;10.92;nan;102676.78;5013490;28;20034;-51
2022/04/27 08:23:32;;;;;;;3.08;2.10;;;;;;;10.86;nan;102661.03;4998866;28;20048;-53
2022/04/27 08:25:59;;;;;;;3.05;1.90;;;;;;;10.85;nan;102651.38;5013396;28;20408;-53
2022/04/27 08:28:25;;;;;;;2.38;2.00;;;;;;;10.89;nan;102647.81;4995964;28;20053;-52
2022/04/27 08:30:51;;;;;;;3.45;1.98;;;;;;;10.99;nan;102653.06;5011356;28;20026;-56
2022/04/27 08:33:17;;;;;;;4.95;2.50;;;;;;;11.30;nan;102711.75;5013073;28;20026;-54
2022/04/27 08:35:43;;;;;;;4.90;2.60;;;;;;;;;;5012054;28;20084;-51
2022/04/27 08:38:11;;;;;;;5.40;2.55;;;;;;;;;;5027487;28;20053;-52
2022/04/27 08:40:46;;;;;;;3.83;2.10;;;;;;;;;;5032907;28;20029;-49
2022/04/27 08:43:12;;;;;;;6.25;3.03;;;;;;;;;;5032778;28;20037;-49
2022/04/27 08:45:38;;;;;;;2.10;1.90;;;;;;;;;;5032739;28;20044;-52
2022/04/27 08:48:03;;;;;;;4.97;2.78;;;;;;;;;;5032806;28;20530;-49
2022/04/27 08:50:29;;;;;;;3.60;2.38;;;;;;;;;;5014843;28;20033;-49
2022/04/27 08:52:55;;;;;;;5.13;2.40;;;;;;;;;;5032662;28;20112;-54
2022/04/27 08:55:21;;;;;;;4.47;2.45;;;;;;;;;;5032624;28;20037;-54
2022/04/27 08:57:48;;;;;;;59.80;15.80;;;;;;;;;;5015037;28;20109;-54
2022/04/27 09:00:22;;;;;;;11.40;3.53;;;;;;;;;;5032642;28;20480;-54
2022/04/27 09:02:52;;;;;;;2.88;2.55;;;;;;;;;;5032351;28;20056;-53
2022/04/27 09:05:21;;;;;;;5.13;2.40;;;;;;;;;;5032499;28;20076;-54
2022/04/27 09:07:46;;;;;;;4.05;2.15;;;;;;;;;;5032452;28;20166;-52
2022/04/27 09:10:16;;;;;;;3.30;1.90;;;;;;;;;;5014513;28;20071;-51
2022/04/27 09:12:45;;;;;;;4.10;2.17;;;;;;;;;;5031926;28;20280;-52
2022/04/27 09:15:11;;;;;;;3.30;2.53;;;;;;;;;;5032459;28;20107;-54
2022/04/27 09:23:05;;;;;;;4.07;2.25;;;;;;;;;;5032123;28;20048;-52
2022/04/27 09:25:34;;;;;;;3.67;2.20;;;;;;;;;;5014656;28;20045;-50
2022/04/27 09:28:01;;;;;;;7.18;2.83;;;;;;;;;;5014385;28;20080;-52
2022/04/27 09:30:27;;;;;;;4.25;1.98;;;;;;;;;;5032355;28;20122;-56
2022/04/27 09:32:52;;;;;;;3.33;2.13;;;;;;;;;;5014215;28;20140;-52
2022/04/27 09:35:34;;;;;;;6.50;2.07;;;;;;;;;;5031808;28;20129;-48
2022/04/27 09:38:16;;;;;;;5.13;2.17;;;;;;;;;;5031929;28;20311;-51
2022/04/27 09:40:53;;;;;;;3.80;1.95;;;;;;;;;;5032090;28;20071;-50
2022/04/27 09:43:38;;;;;;;5.22;2.13;;;;;;;;;;5034056;28;20030;-51
2022/04/27 09:46:15;;;;;;;2.28;2.00;;;;;;;;;;5035913;28;20032;-52
2022/04/27 09:48:40;;;;;;;4.43;2.10;;;;;;;;;;5036133;28;20060;-50
2022/04/27 09:51:11;;;;;;;3.53;1.80;;;;;;;;;;5018465;28;20065;-53
2022/04/27 09:53:37;;;;;;;4.75;2.08;;;;;;;;;;5035974;28;20033;-48
2022/04/27 09:56:03;;;;;;;4.47;2.00;;;;;;;;;;5035809;28;20049;-54
2022/04/27 09:58:29;;;;;;;3.53;2.00;;;;;;;12.10;nan;102757.81;5035421;28;20059;-50
2022/04/27 10:00:56;;;;;;;3.25;1.88;;;;;;;11.79;nan;102683.31;5034598;28;20033;-54
2022/04/27 10:03:24;;;;;;;6.10;2.08;;;;;;;12.11;nan;102764.88;5032620;28;20037;-56
2022/04/27 10:05:50;;;;;;;7.00;2.42;;;;;;;11.08;nan;102610.84;5016661;28;20179;-53
2022/04/27 10:08:15;;;;;;;3.85;1.92;;;;;;;12.06;nan;102758.72;5035436;28;20120;-54
2022/04/27 10:10:42;;;;;;;4.57;2.00;;;;;;;12.07;nan;102749.94;5035081;28;20114;-54
2022/04/27 10:13:13;;;;;;;3.75;2.17;;;;;;;11.78;nan;102682.44;4998042;28;20448;-53
2022/04/27 10:15:43;;;;;;;6.95;2.53;;;;;;;12.18;nan;102750.72;5042021;28;20036;-56
2022/04/27 10:18:14;;;;;;;6.05;2.50;;;;;;;11.98;nan;102691.94;5036198;28;20415;-54
2022/04/27 10:20:39;;;;;;;6.53;2.63;;;;;;;12.09;nan;102693.59;5054497;28;20032;-58
2022/04/27 10:23:22;;;;;;;7.93;2.95;;;;;;;12.21;nan;102696.13;5054210;28;20033;-56
2022/04/27 10:26:07;;;;;;;7.97;2.38;;;;;;;12.41;nan;102746.09;5054272;28;20380;-52
2022/04/27 10:28:36;;;;;;;4.95;2.33;;;;;;;12.39;nan;102753.16;5054212;28;20021;-54
2022/04/27 10:31:03;;;;;;;3.88;2.40;;;;;;;12.45;nan;102750.47;5055176;28;20623;-52
2022/04/27 10:33:48;;;;;;;5.55;2.88;;;;;;;12.32;nan;102746.16;5037698;28;20028;-51
2022/04/27 10:36:37;;;;;;;7.93;2.80;;;;;;;12.35;nan;102749.66;5055196;28;20037;-55
2022/04/27 10:39:27;;;;;;;6.03;2.72;;;;;;;12.39;nan;102750.53;5047212;28;20500;-53
2022/04/27 10:42:22;;;;;;;5.47;3.15;;;;;;;12.24;nan;102754.19;5055077;28;20033;-56
2022/04/27 10:44:47;;;;;;;6.00;3.08;;;;;;;12.19;nan;102748.06;5048045;28;20495;-53
2022/04/27 10:47:18;;;;;;;7.65;4.03;;;;;;;11.90;nan;102743.91;5010064;28;20030;-56
2022/04/27 10:49:44;;;;;;;5.22;2.67;;;;;;;11.62;nan;102690.44;5030938;28;20033;-55
2022/04/27 10:52:10;;;;;;;5.97;2.58;;;;;;;11.95;nan;102763.22;5016814;28;20399;-54
2022/04/27 10:54:39;;;;;;;5.45;2.60;;;;;;;11.70;nan;102680.75;5015997;28;20034;-56
2022/04/27 10:57:31;;;;;;;8.05;2.75;;;;;;;11.98;nan;102734.16;5008107;28;20061;-57
2022/04/27 11:00:01;;;;;;;5.47;2.63;;;;;;;11.90;nan;102683.22;5030467;28;20056;-55
2022/04/27 11:02:37;;;;;;;6.50;2.90;;;;;;;12.24;nan;102738.34;5043797;28;20039;-55
2022/04/27 11:05:05;;;;;;;7.72;2.80;;;;;;;12.36;nan;102732.94;5053077;28;20032;-53
2022/04/27 11:07:45;;;;;;;7.05;3.33;;;;;;;11.79;nan;102678.03;5035421;28;20491;-58
2022/04/27 11:10:16;;;;;;;6.28;2.40;;;;;;;12.20;nan;102755.09;5013072;28;20026;-55
2022/04/27 11:12:46;;;;;;;6.68;2.10;;;;;;;12.22;nan;102755.09;5027838;28;20041;-54
2022/04/27 11:15:11;;;;;;;5.93;2.60;;;;;;;11.56;nan;102698.38;5034275;28;20029;-53
2022/04/27 11:17:38;;;;;;;7.63;2.67;;;;;;;11.85;nan;102741.28;5032163;28;20079;-54
2022/04/27 11:20:05;;;;;;;7.93;2.92;;;;;;;12.06;nan;102758.72;5015109;28;20029;-55
2022/04/27 11:22:40;;;;;;;5.65;2.50;;;;;;;11.65;nan;102687.75;5032686;28;20115;-56
2022/04/27 11:25:07;;;;;;;6.35;2.05;;;;;;;11.74;nan;102687.72;5034102;28;20503;-51
2022/04/27 11:27:34;;;;;;;5.78;2.95;;;;;;;11.97;nan;102719.19;5032989;28;20041;-55
2022/04/27 11:30:02;;;;;;;5.55;1.85;;;;;;;12.05;nan;102757.88;5032979;28;20061;-54
2022/04/27 11:32:30;;;;;;;3.60;2.08;;;;;;;11.73;nan;102707.97;5034369;28;20037;-56
2022/04/27 11:34:56;;;;;;;5.60;1.60;;;;;;;12.07;nan;102760.50;5034040;28;20449;-57
2022/04/27 11:37:21;;;;;;;7.97;2.83;;;;;;;12.07;nan;102765.78;5034184;28;20049;-55
2022/04/27 11:39:48;;;;;;;5.55;2.50;;;;;;;12.00;nan;102759.66;5016412;28;20033;-56
2022/04/27 11:42:16;;;;;;;6.45;2.53;;;;;;;11.94;nan;102759.69;5029836;28;20492;-54
2022/04/27 11:44:41;;;;;;;4.05;2.20;;;;;;;11.82;nan;102741.34;5033471;28;20488;-53
2022/04/27 11:47:29;;;;;;;4.40;2.00;;;;;;;11.83;nan;102762.44;5033330;28;20040;-53
2022/04/27 11:50:02;;;;;;;4.75;2.00;;;;;;;11.68;nan;102761.59;5032457;28;20438;-56
2022/04/27 11:52:30;;;;;;;6.85;2.30;;;;;;;11.22;nan;102689.81;5032947;28;20034;-56
2022/04/27 11:55:01;;;;;;;3.53;1.60;;;;;;;11.48;nan;102743.28;5032439;28;20048;-52
2022/04/27 11:57:26;;;;;;;6.75;3.63;;;;;;;11.58;nan;102752.91;5033696;28;20044;-54
2022/04/27 11:59:51;;;;;;;5.05;1.75;;;;;;;11.47;nan;102701.97;5033320;28;20033;-54
2022/04/27 12:02:22;;;;;;;5.47;2.35;;;;;;;11.71;nan;102751.06;5033626;28;20071;-57
2022/04/27 12:04:49;;;;;;;5.80;2.10;;;;;;;12.03;nan;102761.38;5032523;28;20141;-56
2022/04/27 12:07:15;;;;;;;6.93;2.60;;;;;;;12.07;nan;102757.84;5032035;28;20068;-53
2022/04/27 12:09:40;;;;;;;8.40;2.42;;;;;;;12.14;nan;102756.91;5033372;28;20473;-56
2022/04/27 12:12:08;;;;;;;3.83;1.90;;;;;;;12.20;nan;102754.22;5032549;28;20124;-53
2022/04/27 12:14:35;;;;;;;9.10;2.78;;;;;;;12.23;nan;102709.31;5033382;28;20025;-54
2022/04/27 12:17:00;;;;;;;6.03;2.40;;;;;;;12.63;nan;102774.06;5015957;28;20113;-55
2022/04/27 12:19:29;;;;;;;9.50;2.65;;;;;;;12.38;nan;102738.19;5033338;28;20528;-54